createdAt,value
2018-12-23T00:01:28.384Z,10.47
2018-12-23T00:03:58.693Z,10.03
2018-12-23T00:06:29.036Z,10.53
2018-12-23T00:08:59.272Z,10.00
2018-12-23T00:11:29.646Z,10.77
2018-12-23T00:14:00.359Z,10.65
2018-12-23T00:16:31.342Z,9.43
2018-12-23T00:19:01.864Z,9.87
2018-12-23T00:21:36.249Z,10.63
2018-12-23T00:24:06.518Z,10.43
2018-12-23T00:26:36.886Z,10.17
2018-12-23T00:29:07.270Z,11.43
2018-12-23T00:31:38.231Z,10.77
2018-12-23T00:34:08.704Z,10.47
2018-12-23T00:36:39.076Z,11.40
2018-12-23T00:39:09.681Z,11.17
2018-12-23T00:41:40.073Z,11.33
2018-12-23T00:44:10.749Z,13.65
2018-12-23T00:46:41.579Z,12.30
2018-12-23T00:49:11.920Z,15.20
2018-12-23T00:51:42.189Z,15.27
2018-12-23T00:54:12.871Z,15.45
2018-12-23T00:56:43.550Z,15.00
2018-12-23T00:59:14.013Z,15.80
2018-12-23T01:01:44.163Z,17.97
2018-12-23T01:04:15.369Z,20.37
2018-12-23T01:10:07.438Z,21.57
2018-12-23T01:12:39.114Z,18.23
2018-12-23T01:15:10.767Z,20.53
2018-12-23T01:17:42.532Z,21.93
2018-12-23T01:20:14.847Z,23.47
2018-12-23T01:22:46.571Z,21.97
2018-12-23T01:25:18.376Z,21.12
2018-12-23T01:27:49.972Z,22.83
2018-12-23T01:30:23.970Z,21.53
2018-12-23T01:32:55.867Z,22.83
2018-12-23T01:35:37.014Z,21.00
2018-12-23T01:38:02.525Z,20.88
2018-12-23T01:40:34.567Z,25.30
2018-12-23T01:43:06.869Z,19.93
2018-12-23T01:45:40.253Z,21.43
2018-12-23T01:48:11.777Z,20.90
2018-12-23T01:50:43.644Z,22.97
2018-12-23T01:53:15.124Z,22.97
2018-12-23T01:55:48.088Z,23.83
2018-12-23T01:58:19.692Z,22.47
2018-12-23T02:00:51.369Z,26.57
2018-12-23T02:03:23.282Z,26.50
2018-12-23T02:05:55.017Z,27.83
2018-12-23T02:08:27.061Z,27.20
2018-12-23T02:10:58.768Z,30.20
2018-12-23T02:13:30.660Z,27.40
2018-12-23T02:16:02.610Z,24.80
2018-12-23T02:18:34.475Z,26.30
2018-12-23T02:21:06.285Z,25.00
2018-12-23T02:23:38.187Z,25.73
2018-12-23T02:26:11.302Z,24.53
2018-12-23T02:28:45.156Z,27.30
2018-12-23T02:31:16.625Z,25.13
2018-12-23T02:33:48.611Z,26.33
2018-12-23T02:36:20.502Z,28.65
2018-12-23T02:38:52.316Z,28.33
2018-12-23T02:41:31.692Z,29.73
2018-12-23T02:43:57.876Z,30.17
2018-12-23T02:46:29.755Z,33.40
2018-12-23T02:49:01.272Z,30.65
2018-12-23T02:51:32.864Z,28.97
2018-12-23T02:54:04.786Z,27.33
2018-12-23T02:56:36.296Z,27.57
2018-12-23T02:59:07.889Z,27.83
2018-12-23T03:01:40.739Z,26.45
2018-12-23T03:04:12.253Z,27.73
2018-12-23T03:06:44.069Z,24.23
2018-12-23T03:09:15.948Z,25.03
2018-12-23T03:11:50.100Z,24.20
2018-12-23T03:14:22.205Z,24.43
2018-12-23T03:16:55.503Z,24.00
2018-12-23T03:19:27.246Z,23.17
2018-12-23T03:21:59.078Z,23.67
2018-12-23T03:24:30.604Z,20.77
2018-12-23T03:27:02.082Z,21.80
2018-12-23T03:29:34.116Z,23.80
2018-12-23T03:32:06.220Z,21.80
2018-12-23T03:34:37.922Z,24.57
2018-12-23T03:37:09.627Z,23.57
2018-12-23T03:39:41.478Z,23.30
2018-12-23T03:42:14.426Z,21.13
2018-12-23T03:44:46.194Z,23.40
2018-12-23T03:47:17.801Z,23.47
2018-12-23T03:49:50.648Z,22.90
2018-12-23T03:52:22.217Z,23.70
2018-12-23T03:54:53.885Z,24.87
2018-12-23T03:57:25.795Z,24.20
2018-12-23T03:59:57.852Z,24.47
2018-12-23T04:02:29.488Z,24.13
2018-12-23T04:05:01.247Z,24.97
2018-12-23T04:07:33.856Z,24.80
2018-12-23T04:10:05.954Z,25.62
2018-12-23T04:12:37.867Z,23.75
2018-12-23T04:15:09.881Z,25.60
2018-12-23T04:17:43.859Z,25.20
2018-12-23T04:20:15.710Z,26.03
2018-12-23T04:22:47.624Z,26.60
2018-12-23T04:25:19.157Z,27.50
2018-12-23T04:27:50.787Z,23.67
2018-12-23T04:30:22.496Z,29.20
2018-12-23T04:32:56.293Z,25.63
2018-12-23T04:35:28.196Z,26.20
2018-12-23T04:38:00.048Z,26.17
2018-12-23T04:40:31.683Z,26.77
2018-12-23T04:43:03.146Z,28.20
2018-12-23T04:45:34.644Z,27.13
2018-12-23T04:48:06.484Z,26.42
2018-12-23T04:50:38.604Z,26.97
2018-12-23T04:53:10.347Z,26.70
2018-12-23T04:55:42.813Z,27.43
2018-12-23T04:58:16.417Z,27.60
2018-12-23T05:00:48.591Z,27.40
2018-12-23T05:03:20.401Z,27.37
2018-12-23T05:05:53.798Z,28.80
2018-12-23T05:08:25.332Z,29.13
2018-12-23T05:10:57.174Z,28.03
2018-12-23T05:13:29.804Z,29.47
2018-12-23T05:16:01.544Z,30.30
2018-12-23T05:18:33.437Z,30.15
2018-12-23T05:21:06.018Z,29.33
2018-12-23T05:23:39.992Z,31.00
2018-12-23T05:26:12.500Z,32.20
2018-12-23T05:28:44.148Z,32.47
2018-12-23T05:31:16.534Z,33.47
2018-12-23T05:33:48.276Z,33.93
2018-12-23T05:36:20.189Z,35.50
2018-12-23T05:38:51.963Z,35.93
2018-12-23T05:41:23.977Z,39.05
2018-12-23T05:43:55.835Z,42.20
2018-12-23T05:46:27.382Z,43.23
2018-12-23T05:48:59.572Z,37.25
2018-12-23T05:51:31.209Z,35.45
2018-12-23T05:54:04.534Z,34.70
2018-12-23T05:56:36.339Z,34.80
2018-12-23T05:59:08.065Z,33.30
2018-12-23T06:01:40.107Z,36.03
2018-12-23T06:04:13.264Z,34.05
2018-12-23T06:06:44.842Z,33.80
2018-12-23T06:09:16.692Z,32.50
2018-12-23T06:11:48.325Z,32.97
2018-12-23T06:14:20.017Z,34.60
2018-12-23T06:16:51.873Z,34.67
2018-12-23T06:19:23.391Z,32.83
2018-12-23T06:21:55.410Z,29.53
2018-12-23T06:24:28.432Z,28.43
2018-12-23T06:27:00.133Z,30.53
2018-12-23T06:29:31.916Z,30.43
2018-12-23T06:32:03.880Z,27.80
2018-12-23T06:34:36.655Z,30.03
2018-12-23T06:37:10.230Z,32.07
2018-12-23T06:39:41.630Z,31.13
2018-12-23T06:42:13.573Z,31.83
2018-12-23T06:44:45.586Z,33.00
2018-12-23T06:47:17.819Z,31.55
2018-12-23T06:49:49.467Z,32.80
2018-12-23T06:52:21.449Z,32.97
2018-12-23T06:54:53.135Z,29.57
2018-12-23T06:57:26.103Z,32.27
2018-12-23T06:59:57.694Z,30.77
2018-12-23T07:02:30.197Z,30.30
2018-12-23T07:05:01.873Z,26.67
2018-12-23T07:07:34.041Z,29.53
2018-12-23T07:10:07.347Z,25.23
2018-12-23T07:12:39.737Z,25.10
2018-12-23T07:15:11.751Z,23.10
2018-12-23T07:17:44.463Z,24.80
2018-12-23T07:20:16.490Z,25.65
2018-12-23T07:22:48.192Z,27.43
2018-12-23T07:25:20.980Z,27.50
2018-12-23T07:27:55.144Z,28.03
2018-12-23T07:30:27.695Z,27.30
2018-12-23T07:33:00.149Z,28.87
2018-12-23T07:35:31.931Z,23.50
2018-12-23T07:38:06.101Z,22.40
2018-12-23T07:40:39.636Z,21.17
2018-12-23T07:43:11.862Z,23.67
2018-12-23T07:45:43.541Z,21.63
2018-12-23T07:48:17.340Z,19.80
2018-12-23T07:50:50.425Z,20.27
2018-12-23T07:53:22.508Z,21.00
2018-12-23T07:55:55.403Z,20.23
2018-12-23T07:58:28.554Z,20.97
2018-12-23T08:01:01.768Z,18.80
2018-12-23T08:03:33.884Z,18.47
2018-12-23T08:06:07.457Z,18.47
2018-12-23T08:08:40.666Z,16.50
2018-12-23T08:11:14.680Z,16.40
2018-12-23T08:13:46.650Z,16.67
2018-12-23T08:16:20.173Z,17.00
2018-12-23T08:18:53.465Z,15.10
2018-12-23T08:21:26.993Z,16.43
2018-12-23T08:24:00.088Z,14.77
2018-12-23T08:26:33.088Z,14.87
2018-12-23T08:29:05.529Z,14.93
2018-12-23T08:31:38.337Z,15.57
2018-12-23T08:34:10.538Z,16.50
2018-12-23T08:36:44.023Z,16.60
2018-12-23T08:39:17.725Z,16.00
2018-12-23T08:41:50.864Z,16.55
2018-12-23T08:44:24.343Z,16.57
2018-12-23T08:46:57.780Z,16.73
2018-12-23T08:49:31.025Z,17.27
2018-12-23T08:52:04.154Z,17.37
2018-12-23T08:54:36.937Z,16.53
2018-12-23T08:57:09.821Z,18.83
2018-12-23T08:59:44.036Z,19.63
2018-12-23T09:02:17.175Z,19.32
2018-12-23T09:04:50.544Z,19.55
2018-12-23T09:07:23.816Z,20.92
2018-12-23T09:09:57.248Z,19.97
2018-12-23T09:12:30.674Z,19.07
2018-12-23T09:15:04.268Z,19.67
2018-12-23T09:17:37.566Z,19.63
2018-12-23T09:20:10.815Z,18.25
2018-12-23T09:22:43.078Z,19.63
2018-12-23T09:25:16.314Z,20.40
2018-12-23T09:27:50.293Z,21.00
2018-12-23T09:30:23.712Z,20.95
2018-12-23T09:32:55.539Z,21.03
2018-12-23T09:35:28.345Z,21.93
2018-12-23T09:38:01.898Z,22.30
2018-12-23T09:40:33.944Z,24.43
2018-12-23T09:43:06.623Z,22.93
2018-12-23T09:45:38.796Z,22.43
2018-12-23T09:48:10.929Z,20.65
2018-12-23T09:50:42.839Z,21.27
2018-12-23T09:53:15.004Z,21.30
2018-12-23T09:55:49.059Z,19.03
2018-12-23T09:58:21.240Z,19.27
2018-12-23T10:00:53.332Z,19.93
2018-12-23T10:03:25.088Z,21.67
2018-12-23T10:05:58.346Z,21.00
2018-12-23T10:08:30.237Z,20.73
2018-12-23T10:11:03.254Z,21.67
2018-12-23T10:13:35.225Z,23.90
2018-12-23T10:16:07.037Z,23.57
2018-12-23T10:18:39.032Z,26.17
2018-12-23T10:21:13.378Z,32.10
2018-12-23T10:23:45.264Z,30.70
2018-12-23T10:26:18.396Z,26.13
2018-12-23T10:28:49.965Z,25.37
2018-12-23T10:31:21.697Z,26.30
2018-12-23T10:33:55.229Z,28.07
2018-12-23T10:36:27.119Z,24.67
2018-12-23T10:39:00.984Z,23.43
2018-12-23T10:41:33.995Z,22.63
2018-12-23T10:44:06.308Z,27.17
2018-12-23T10:46:39.106Z,23.93
2018-12-23T10:49:10.704Z,22.58
2018-12-23T10:51:42.553Z,25.60
2018-12-23T10:54:13.957Z,24.43
2018-12-23T10:56:45.737Z,26.65
2018-12-23T10:59:17.176Z,25.90
2018-12-23T11:01:48.954Z,25.53
2018-12-23T11:04:20.609Z,22.57
2018-12-23T11:06:52.466Z,23.23
2018-12-23T11:09:24.295Z,24.87
2018-12-23T11:11:55.958Z,21.90
2018-12-23T11:14:27.839Z,23.33
2018-12-23T11:16:59.676Z,23.83
2018-12-23T11:19:31.173Z,25.62
2018-12-23T11:22:03.101Z,29.57
2018-12-23T11:24:34.612Z,26.43
2018-12-23T11:27:06.342Z,27.77
2018-12-23T11:29:37.889Z,31.27
2018-12-23T11:32:09.461Z,27.53
2018-12-23T11:34:41.079Z,26.43
2018-12-23T11:37:13.195Z,24.85
2018-12-23T11:39:45.876Z,23.60
2018-12-23T11:42:17.675Z,25.65
2018-12-23T11:44:49.363Z,23.97
2018-12-23T11:47:20.959Z,25.05
2018-12-23T11:49:52.614Z,23.33
2018-12-23T11:52:24.197Z,23.80
2018-12-23T11:54:55.810Z,25.17
2018-12-23T11:57:27.300Z,25.17
2018-12-23T11:59:58.890Z,23.10
2018-12-23T12:02:30.786Z,23.30
2018-12-23T12:05:02.359Z,21.17
2018-12-23T12:07:34.248Z,23.50
2018-12-23T12:10:07.077Z,22.90
2018-12-23T12:12:38.771Z,24.97
2018-12-23T12:15:10.342Z,27.10
2018-12-23T12:17:42.210Z,25.80
2018-12-23T12:20:13.668Z,24.30
2018-12-23T12:22:45.408Z,24.53
2018-12-23T12:25:17.190Z,20.70
2018-12-23T12:27:48.764Z,23.27
2018-12-23T12:30:20.795Z,24.80
2018-12-23T12:32:52.519Z,24.03
2018-12-23T12:35:27.870Z,23.00
2018-12-23T12:37:59.568Z,25.30
2018-12-23T12:40:32.630Z,25.77
2018-12-23T12:43:04.352Z,26.87
2018-12-23T12:45:35.944Z,26.93
2018-12-23T12:48:07.668Z,29.13
2018-12-23T12:50:39.850Z,27.00
2018-12-23T12:53:11.991Z,28.32
2018-12-23T12:55:44.047Z,27.93
2018-12-23T12:58:15.571Z,32.28
2018-12-23T13:00:47.274Z,34.27
2018-12-23T13:03:19.435Z,29.30
2018-12-23T13:05:50.922Z,34.17
2018-12-23T13:08:22.635Z,32.83
2018-12-23T13:10:54.188Z,34.80
2018-12-23T13:13:26.280Z,37.10
2018-12-23T13:15:58.306Z,36.63
2018-12-23T13:18:30.083Z,34.30
2018-12-23T13:21:01.629Z,35.30
2018-12-23T13:23:33.086Z,32.77
2018-12-23T13:26:04.920Z,33.90
2018-12-23T13:28:36.730Z,35.63
2018-12-23T13:31:08.164Z,34.60
2018-12-23T13:33:39.846Z,33.87
2018-12-23T13:36:12.101Z,31.57
2018-12-23T13:38:44.089Z,36.67
2018-12-23T13:41:57.293Z,33.45
2018-12-23T13:45:15.925Z,36.50
2018-12-23T13:48:40.762Z,34.27
2018-12-23T13:51:32.139Z,38.60
2018-12-23T13:54:47.992Z,37.20
2018-12-23T13:58:12.815Z,35.20
2018-12-23T14:01:20.929Z,33.88
2018-12-23T14:04:38.057Z,36.77
2018-12-23T14:07:51.940Z,35.03
2018-12-23T14:10:58.130Z,32.80
2018-12-23T14:13:29.641Z,34.57
2018-12-23T14:16:04.121Z,34.73
2018-12-23T14:18:35.877Z,34.30
2018-12-23T14:21:07.425Z,33.20
2018-12-23T14:23:38.896Z,33.57
2018-12-23T14:26:10.678Z,32.00
2018-12-23T14:28:42.501Z,33.08
2018-12-23T14:31:14.071Z,32.15
2018-12-23T14:33:45.891Z,30.50
2018-12-23T14:36:17.541Z,29.10
2018-12-23T14:38:48.952Z,32.77
2018-12-23T14:41:20.563Z,27.27
2018-12-23T14:43:52.162Z,28.93
2018-12-23T14:46:24.873Z,28.40
2018-12-23T14:48:56.686Z,26.67
2018-12-23T14:51:28.774Z,27.57
2018-12-23T14:54:00.304Z,27.10
2018-12-23T14:56:31.864Z,27.83
2018-12-23T14:59:05.173Z,28.53
2018-12-23T15:01:36.885Z,26.67
2018-12-23T15:04:09.537Z,27.03
2018-12-23T15:06:41.273Z,28.95
2018-12-23T15:09:15.063Z,31.07
2018-12-23T15:11:46.638Z,30.13
2018-12-23T15:14:20.252Z,31.50
2018-12-23T15:16:51.978Z,30.33
2018-12-23T15:19:23.628Z,30.10
2018-12-23T15:21:55.118Z,31.60
2018-12-23T15:24:27.825Z,32.23
2018-12-23T15:26:59.555Z,33.00
2018-12-23T15:29:31.118Z,34.43
2018-12-23T15:32:02.635Z,34.67
2018-12-23T15:34:34.356Z,31.10
2018-12-23T15:37:06.352Z,35.57
2018-12-23T15:39:42.498Z,32.77
2018-12-23T15:42:13.457Z,33.85
2018-12-23T15:44:47.258Z,31.20
2018-12-23T15:47:19.336Z,30.57
2018-12-23T15:49:51.194Z,31.90
2018-12-23T15:52:22.872Z,34.63
2018-12-23T15:54:54.505Z,33.53
2018-12-23T15:57:26.156Z,31.77
2018-12-23T15:59:58.222Z,31.43
2018-12-23T16:02:29.881Z,31.80
2018-12-23T16:05:01.453Z,30.15
2018-12-23T16:07:33.013Z,32.97
2018-12-23T16:10:04.778Z,32.63
2018-12-23T16:12:36.446Z,31.60
2018-12-23T16:15:08.209Z,32.47
2018-12-23T16:17:40.468Z,32.80
2018-12-23T16:20:14.172Z,32.40
2018-12-23T16:22:47.395Z,29.63
2018-12-23T16:25:19.054Z,32.83
2018-12-23T16:27:50.578Z,29.00
2018-12-23T16:30:22.752Z,28.43
2018-12-23T16:32:54.498Z,29.40
2018-12-23T16:35:26.222Z,30.77
2018-12-23T16:37:58.527Z,30.57
2018-12-23T16:40:30.307Z,29.90
2018-12-23T16:43:02.209Z,26.68
2018-12-23T16:45:33.961Z,25.87
2018-12-23T16:48:06.949Z,27.15
2018-12-23T16:50:38.698Z,29.10
2018-12-23T16:53:10.429Z,25.80
2018-12-23T16:55:42.242Z,26.70
2018-12-23T16:58:16.081Z,28.23
2018-12-23T17:00:49.957Z,27.67
2018-12-23T17:03:21.505Z,29.00
2018-12-23T17:05:53.261Z,27.47
2018-12-23T17:08:24.940Z,28.07
2018-12-23T17:10:56.658Z,30.77
2018-12-23T17:13:28.590Z,33.97
2018-12-23T17:16:00.332Z,31.07
2018-12-23T17:18:31.918Z,35.63
2018-12-23T17:21:03.414Z,34.70
2018-12-23T17:23:35.956Z,39.60
2018-12-23T17:26:07.931Z,47.17
2018-12-23T17:28:39.910Z,48.37
2018-12-23T17:31:11.639Z,51.63
2018-12-23T17:33:43.728Z,47.20
2018-12-23T17:36:15.502Z,45.50
2018-12-23T17:38:47.158Z,48.23
2018-12-23T17:41:18.851Z,50.25
2018-12-23T17:43:50.705Z,47.63
2018-12-23T17:46:22.687Z,46.55
2018-12-23T17:48:54.517Z,41.77
2018-12-23T17:51:27.648Z,40.63
2018-12-23T17:53:59.623Z,40.87
2018-12-23T17:56:31.142Z,38.50
2018-12-23T17:59:04.780Z,38.07
2018-12-23T18:01:38.499Z,35.45
2018-12-23T18:04:10.052Z,41.73
2018-12-23T18:06:41.781Z,41.93
2018-12-23T18:09:15.879Z,42.73
2018-12-23T18:11:47.509Z,44.98
2018-12-23T18:14:19.265Z,48.13
2018-12-23T18:16:51.068Z,39.47
2018-12-23T18:19:22.974Z,41.17
2018-12-23T18:21:54.758Z,40.40
2018-12-23T18:24:26.934Z,43.27
2018-12-23T18:26:58.682Z,37.73
2018-12-23T18:29:30.627Z,36.77
2018-12-23T18:32:02.226Z,38.23
2018-12-23T18:34:34.546Z,35.00
2018-12-23T18:37:06.896Z,33.50
2018-12-23T18:39:38.558Z,30.57
2018-12-23T18:42:10.112Z,32.80
2018-12-23T18:44:42.046Z,33.70
2018-12-23T18:47:13.573Z,35.30
2018-12-23T18:49:45.311Z,36.07
2018-12-23T18:52:17.209Z,31.10
2018-12-23T18:54:48.841Z,36.67
2018-12-23T18:57:21.903Z,38.80
2018-12-23T18:59:54.029Z,34.50
2018-12-23T19:02:34.554Z,36.23
2018-12-23T19:05:06.360Z,35.10
2018-12-23T19:07:38.278Z,32.03
2018-12-23T19:10:42.114Z,34.07
2018-12-23T19:13:49.744Z,32.60
2018-12-23T19:16:51.160Z,33.77
2018-12-23T19:20:11.255Z,35.00
2018-12-23T19:23:31.208Z,36.83
2018-12-23T19:26:48.457Z,34.70
2018-12-23T19:30:00.460Z,36.03
2018-12-23T19:33:16.642Z,32.80
2018-12-23T19:36:38.114Z,30.67
2018-12-23T19:39:43.110Z,33.10
2018-12-23T19:42:44.998Z,34.07
2018-12-23T19:45:51.000Z,34.23
2018-12-23T19:49:00.073Z,33.25
2018-12-23T19:52:36.547Z,32.20
2018-12-23T19:55:56.683Z,32.77
2018-12-23T19:59:25.834Z,30.67
2018-12-23T20:02:33.990Z,29.63
2018-12-23T20:05:39.543Z,28.25
2018-12-23T20:09:06.679Z,30.67
2018-12-23T20:12:23.427Z,32.43
2018-12-23T20:15:32.532Z,30.83
2018-12-23T20:18:46.834Z,30.20
2018-12-23T20:21:41.318Z,29.90
2018-12-23T20:24:43.140Z,29.37
2018-12-23T20:28:04.311Z,31.73
2018-12-23T20:31:10.029Z,29.13
2018-12-23T20:34:34.177Z,33.73
2018-12-23T20:37:48.660Z,31.10
2018-12-23T20:41:07.690Z,31.82
2018-12-23T20:44:30.084Z,31.97
2018-12-23T20:47:38.203Z,33.07
2018-12-23T20:50:47.695Z,32.73
2018-12-23T20:53:59.351Z,31.73
2018-12-23T20:57:11.435Z,32.77
2018-12-23T21:00:28.626Z,33.23
2018-12-23T21:03:38.120Z,34.37
2018-12-23T21:06:45.585Z,31.00
2018-12-23T21:10:07.148Z,32.30
2018-12-23T21:13:27.281Z,36.57
2018-12-23T21:17:08.646Z,30.50
2018-12-23T21:20:25.866Z,30.97
2018-12-23T21:23:50.295Z,31.50
2018-12-23T21:26:57.020Z,36.20
2018-12-23T21:30:09.192Z,30.37
2018-12-23T21:33:23.202Z,31.57
2018-12-23T21:36:24.592Z,26.93
2018-12-23T21:39:34.037Z,29.50
2018-12-23T21:42:53.397Z,28.07
2018-12-23T21:46:02.914Z,28.00
2018-12-23T21:49:17.572Z,26.50
2018-12-23T21:52:41.995Z,26.57
2018-12-23T21:55:47.570Z,25.23
2018-12-23T21:58:48.299Z,23.20
2018-12-23T22:01:49.605Z,21.47
2018-12-23T22:04:47.247Z,22.93
2018-12-23T22:08:08.515Z,19.50
2018-12-23T22:11:05.230Z,19.53
2018-12-23T22:13:36.809Z,20.90
2018-12-23T22:16:08.482Z,21.53
2018-12-23T22:18:40.247Z,19.80
2018-12-23T22:21:12.120Z,16.40
2018-12-23T22:23:43.970Z,14.40
2018-12-23T22:26:15.676Z,16.95
2018-12-23T22:28:47.568Z,18.00
2018-12-23T22:31:19.280Z,15.97
2018-12-23T22:33:52.146Z,15.70
2018-12-23T22:36:24.252Z,15.07
2018-12-23T22:38:56.216Z,18.10
2018-12-23T22:41:30.841Z,16.93
2018-12-23T22:44:04.569Z,16.70
2018-12-23T22:46:36.845Z,15.23
2018-12-23T22:49:08.471Z,15.18
2018-12-23T22:51:40.508Z,16.93
2018-12-23T22:54:12.286Z,14.60
2018-12-23T22:56:44.606Z,13.77
2018-12-23T22:59:16.299Z,15.23
2018-12-23T23:01:48.465Z,15.20
2018-12-23T23:04:20.275Z,12.53
2018-12-23T23:06:53.321Z,13.33
2018-12-23T23:09:25.709Z,13.95
2018-12-23T23:11:57.616Z,12.73
2018-12-23T23:14:30.763Z,15.23
2018-12-23T23:17:02.726Z,12.43
2018-12-23T23:19:35.454Z,12.90
2018-12-23T23:22:07.138Z,12.70
2018-12-23T23:24:40.967Z,13.20
2018-12-23T23:27:13.903Z,11.93
2018-12-23T23:29:45.952Z,13.03
2018-12-23T23:32:17.717Z,13.40
2018-12-23T23:34:49.548Z,14.43
2018-12-23T23:37:21.122Z,16.23
2018-12-23T23:39:52.909Z,16.73
2018-12-23T23:42:24.841Z,14.43
2018-12-23T23:44:58.759Z,13.67
2018-12-23T23:47:30.483Z,13.70
2018-12-23T23:50:02.206Z,14.25
2018-12-23T23:52:34.035Z,14.70
2018-12-23T23:55:06.312Z,13.18
2018-12-23T23:57:38.345Z,14.83
